sensor_id;sensor_type;location;lat;lon;timestamp;pressure;altitude;pressure_sealevel;temperature;humidity
9538;BME280;4807;48.024;11.726;2024-02-16T00:03:01;94903.66;;;3.65;95.88
9538;BME280;4807;48.024;11.726;2024-02-16T00:06:11;94902.66;;;3.58;95.91
9538;BME280;4807;48.024;11.726;2024-02-16T00:09:21;94904.47;;;3.58;95.88
9538;BME280;4807;48.024;11.726;2024-02-16T00:12:31;94896.97;;;3.71;95.07
9538;BME280;4807;48.024;11.726;2024-02-16T00:15:40;94898.63;;;3.80;94.89
9538;BME280;4807;48.024;11.726;2024-02-16T00:18:48;94894.31;;;3.63;95.59
9538;BME280;4807;48.024;11.726;2024-02-16T00:21:57;94889.16;;;3.53;95.65
9538;BME280;4807;48.024;11.726;2024-02-16T00:25:07;94889.00;;;3.55;95.81
9538;BME280;4807;48.024;11.726;2024-02-16T00:28:16;94889.97;;;3.45;96.80
9538;BME280;4807;48.024;11.726;2024-02-16T00:31:26;94889.31;;;3.52;95.96
9538;BME280;4807;48.024;11.726;2024-02-16T00:34:36;94886.00;;;3.50;95.55
9538;BME280;4807;48.024;11.726;2024-02-16T00:37:46;94872.81;;;3.41;95.99
9538;BME280;4807;48.024;11.726;2024-02-16T00:40:55;94884.00;;;3.35;96.30
9538;BME280;4807;48.024;11.726;2024-02-16T00:44:04;94877.41;;;3.31;96.19
9538;BME280;4807;48.024;11.726;2024-02-16T00:47:13;94879.56;;;3.36;96.58
9538;BME280;4807;48.024;11.726;2024-02-16T00:50:23;94873.66;;;3.42;97.25
9538;BME280;4807;48.024;11.726;2024-02-16T00:53:32;94860.72;;;3.49;96.97
9538;BME280;4807;48.024;11.726;2024-02-16T00:56:40;94868.25;;;3.52;97.10
9538;BME280;4807;48.024;11.726;2024-02-16T00:59:50;94861.06;;;3.62;97.05
9538;BME280;4807;48.024;11.726;2024-02-16T01:02:58;94868.66;;;3.73;95.81
9538;BME280;4807;48.024;11.726;2024-02-16T01:06:07;94866.31;;;3.54;95.45
9538;BME280;4807;48.024;11.726;2024-02-16T01:09:16;94870.59;;;3.55;94.84
9538;BME280;4807;48.024;11.726;2024-02-16T01:12:26;94872.88;;;3.58;94.62
9538;BME280;4807;48.024;11.726;2024-02-16T01:15:36;94873.47;;;3.35;94.84
9538;BME280;4807;48.024;11.726;2024-02-16T01:18:45;94872.50;;;3.36;94.16
9538;BME280;4807;48.024;11.726;2024-02-16T01:21:53;94871.50;;;3.37;93.52
9538;BME280;4807;48.024;11.726;2024-02-16T01:25:07;94862.97;;;3.43;93.41
9538;BME280;4807;48.024;11.726;2024-02-16T01:28:16;94868.66;;;3.23;94.35
9538;BME280;4807;48.024;11.726;2024-02-16T01:31:25;94865.25;;;3.30;95.30
9538;BME280;4807;48.024;11.726;2024-02-16T01:34:34;94871.81;;;3.34;94.29
9538;BME280;4807;48.024;11.726;2024-02-16T01:37:42;94874.41;;;3.26;94.27
9538;BME280;4807;48.024;11.726;2024-02-16T01:40:51;94879.50;;;3.20;94.35
9538;BME280;4807;48.024;11.726;2024-02-16T01:43:59;94876.81;;;3.45;93.26
9538;BME280;4807;48.024;11.726;2024-02-16T01:47:09;94881.66;;;3.24;93.25
9538;BME280;4807;48.024;11.726;2024-02-16T01:50:19;94881.44;;;3.18;93.43
9538;BME280;4807;48.024;11.726;2024-02-16T01:53:28;94881.00;;;3.22;93.18
9538;BME280;4807;48.024;11.726;2024-02-16T01:56:37;94875.28;;;3.35;92.39
9538;BME280;4807;48.024;11.726;2024-02-16T01:59:45;94875.44;;;3.33;92.52
9538;BME280;4807;48.024;11.726;2024-02-16T02:02:55;94873.81;;;3.32;93.06
9538;BME280;4807;48.024;11.726;2024-02-16T02:06:04;94861.31;;;3.42;93.22
9538;BME280;4807;48.024;11.726;2024-02-16T02:09:13;94856.09;;;3.51;92.42
9538;BME280;4807;48.024;11.726;2024-02-16T02:12:22;94844.09;;;3.56;91.89
9538;BME280;4807;48.024;11.726;2024-02-16T02:15:30;94850.34;;;3.47;91.88
9538;BME280;4807;48.024;11.726;2024-02-16T02:18:45;94842.63;;;3.54;91.87
9538;BME280;4807;48.024;11.726;2024-02-16T02:21:53;94840.47;;;3.57;91.44
9538;BME280;4807;48.024;11.726;2024-02-16T02:25:04;94839.16;;;3.53;91.99
9538;BME280;4807;48.024;11.726;2024-02-16T02:28:12;94842.47;;;3.55;91.74
9538;BME280;4807;48.024;11.726;2024-02-16T02:31:21;94846.94;;;3.71;91.08
9538;BME280;4807;48.024;11.726;2024-02-16T02:34:29;94844.31;;;3.71;90.28
9538;BME280;4807;48.024;11.726;2024-02-16T02:37:38;94846.09;;;3.70;90.52
9538;BME280;4807;48.024;11.726;2024-02-16T02:40:47;94843.81;;;3.75;90.50
9538;BME280;4807;48.024;11.726;2024-02-16T02:43:55;94843.66;;;3.77;90.69
9538;BME280;4807;48.024;11.726;2024-02-16T02:47:04;94842.66;;;3.70;91.44
9538;BME280;4807;48.024;11.726;2024-02-16T02:50:12;94841.00;;;3.77;90.79
9538;BME280;4807;48.024;11.726;2024-02-16T02:53:21;94835.88;;;3.67;91.04
9538;BME280;4807;48.024;11.726;2024-02-16T02:56:30;94836.72;;;3.76;90.34
9538;BME280;4807;48.024;11.726;2024-02-16T02:59:38;94834.47;;;3.81;89.74
9538;BME280;4807;48.024;11.726;2024-02-16T03:02:47;94841.28;;;3.58;90.99
9538;BME280;4807;48.024;11.726;2024-02-16T03:05:55;94848.41;;;3.81;89.96
9538;BME280;4807;48.024;11.726;2024-02-16T03:09:04;94839.72;;;3.81;89.69
9538;BME280;4807;48.024;11.726;2024-02-16T03:12:15;94843.97;;;3.82;90.08
9538;BME280;4807;48.024;11.726;2024-02-16T03:15:23;94844.66;;;3.84;89.04
9538;BME280;4807;48.024;11.726;2024-02-16T03:18:33;94833.44;;;3.82;89.15
9538;BME280;4807;48.024;11.726;2024-02-16T03:21:41;94844.47;;;3.86;89.32
9538;BME280;4807;48.024;11.726;2024-02-16T03:24:51;94848.59;;;3.80;89.60
9538;BME280;4807;48.024;11.726;2024-02-16T03:28:00;94853.53;;;3.91;89.24
9538;BME280;4807;48.024;11.726;2024-02-16T03:31:16;94858.50;;;3.94;88.70
9538;BME280;4807;48.024;11.726;2024-02-16T03:34:25;94862.09;;;3.85;89.55
9538;BME280;4807;48.024;11.726;2024-02-16T03:37:33;94864.56;;;3.78;89.14
9538;BME280;4807;48.024;11.726;2024-02-16T03:40:41;94877.16;;;3.59;89.25
9538;BME280;4807;48.024;11.726;2024-02-16T03:44:44;94876.31;;;3.50;89.46
9538;BME280;4807;48.024;11.726;2024-02-16T03:48:16;94878.44;;;3.38;90.11
9538;BME280;4807;48.024;11.726;2024-02-16T03:51:25;94877.66;;;3.54;89.51
9538;BME280;4807;48.024;11.726;2024-02-16T03:54:33;94881.59;;;3.58;89.66
9538;BME280;4807;48.024;11.726;2024-02-16T03:57:42;94883.75;;;3.55;89.95
9538;BME280;4807;48.024;11.726;2024-02-16T04:00:51;94888.69;;;3.58;90.19
9538;BME280;4807;48.024;11.726;2024-02-16T04:04:00;94878.84;;;3.68;90.40
9538;BME280;4807;48.024;11.726;2024-02-16T04:07:10;94886.09;;;3.82;88.84
9538;BME280;4807;48.024;11.726;2024-02-16T04:10:18;94891.06;;;3.85;88.66
9538;BME280;4807;48.024;11.726;2024-02-16T04:13:26;94895.78;;;3.73;89.41
9538;BME280;4807;48.024;11.726;2024-02-16T04:16:36;94899.22;;;3.66;90.47
9538;BME280;4807;48.024;11.726;2024-02-16T04:19:44;94896.97;;;3.79;88.85
9538;BME280;4807;48.024;11.726;2024-02-16T04:22:53;94897.13;;;3.77;88.32
9538;BME280;4807;48.024;11.726;2024-02-16T04:26:01;94899.25;;;3.74;88.89
9538;BME280;4807;48.024;11.726;2024-02-16T04:29:09;94892.84;;;3.76;88.93
9538;BME280;4807;48.024;11.726;2024-02-16T04:32:20;94889.75;;;3.73;88.71
9538;BME280;4807;48.024;11.726;2024-02-16T04:35:28;94897.94;;;3.70;88.87
9538;BME280;4807;48.024;11.726;2024-02-16T04:38:36;94893.16;;;3.73;89.46
9538;BME280;4807;48.024;11.726;2024-02-16T04:41:45;94891.28;;;3.50;89.61
9538;BME280;4807;48.024;11.726;2024-02-16T04:44:53;94889.41;;;3.76;88.77
9538;BME280;4807;48.024;11.726;2024-02-16T04:48:08;94890.34;;;3.67;89.18
9538;BME280;4807;48.024;11.726;2024-02-16T04:51:16;94884.75;;;3.62;88.64
9538;BME280;4807;48.024;11.726;2024-02-16T04:54:25;94893.81;;;3.67;88.89
9538;BME280;4807;48.024;11.726;2024-02-16T04:57:33;94894.63;;;3.68;89.15
9538;BME280;4807;48.024;11.726;2024-02-16T05:00:42;94888.91;;;3.72;88.41
9538;BME280;4807;48.024;11.726;2024-02-16T05:03:54;94890.19;;;3.68;88.90
9538;BME280;4807;48.024;11.726;2024-02-16T05:07:04;94886.59;;;3.69;88.23
9538;BME280;4807;48.024;11.726;2024-02-16T05:10:12;94880.50;;;3.77;88.20
9538;BME280;4807;48.024;11.726;2024-02-16T05:13:21;94879.72;;;3.84;87.84
9538;BME280;4807;48.024;11.726;2024-02-16T05:16:29;94886.09;;;3.82;87.72
9538;BME280;4807;48.024;11.726;2024-02-16T05:19:39;94882.16;;;3.78;88.67
9538;BME280;4807;48.024;11.726;2024-02-16T05:22:48;94892.22;;;3.91;87.86
9538;BME280;4807;48.024;11.726;2024-02-16T05:25:56;94890.25;;;3.84;88.02
9538;BME280;4807;48.024;11.726;2024-02-16T05:29:06;94892.72;;;3.86;88.30
9538;BME280;4807;48.024;11.726;2024-02-16T05:32:14;94895.69;;;3.91;87.32
9538;BME280;4807;48.024;11.726;2024-02-16T05:35:24;94894.72;;;4.00;87.04
9538;BME280;4807;48.024;11.726;2024-02-16T05:38:35;94884.53;;;3.97;87.11
9538;BME280;4807;48.024;11.726;2024-02-16T05:41:48;94897.19;;;4.02;86.91
9538;BME280;4807;48.024;11.726;2024-02-16T05:44:56;94887.13;;;3.89;87.76
9538;BME280;4807;48.024;11.726;2024-02-16T05:48:05;94886.81;;;4.00;87.55
9538;BME280;4807;48.024;11.726;2024-02-16T05:51:15;94895.41;;;4.10;87.03
9538;BME280;4807;48.024;11.726;2024-02-16T05:54:23;94896.69;;;4.14;86.99
9538;BME280;4807;48.024;11.726;2024-02-16T05:57:32;94895.09;;;4.13;86.76
9538;BME280;4807;48.024;11.726;2024-02-16T06:00:41;94888.78;;;4.06;87.19
9538;BME280;4807;48.024;11.726;2024-02-16T06:03:49;94887.16;;;4.05;87.92
9538;BME280;4807;48.024;11.726;2024-02-16T06:06:59;94902.63;;;4.08;88.28
9538;BME280;4807;48.024;11.726;2024-02-16T06:10:08;94910.88;;;4.13;88.11
9538;BME280;4807;48.024;11.726;2024-02-16T06:13:18;94907.75;;;4.10;87.90
9538;BME280;4807;48.024;11.726;2024-02-16T06:16:27;94912.22;;;4.34;87.24
9538;BME280;4807;48.024;11.726;2024-02-16T06:19:36;94912.22;;;4.42;86.68
9538;BME280;4807;48.024;11.726;2024-02-16T06:22:46;94917.66;;;4.40;86.19
9538;BME280;4807;48.024;11.726;2024-02-16T06:25:55;94916.19;;;4.46;85.81
9538;BME280;4807;48.024;11.726;2024-02-16T06:29:03;94923.75;;;4.41;85.83
9538;BME280;4807;48.024;11.726;2024-02-16T06:32:12;94924.09;;;4.46;85.49
9538;BME280;4807;48.024;11.726;2024-02-16T06:35:21;94925.72;;;4.47;85.31
9538;BME280;4807;48.024;11.726;2024-02-16T06:38:30;94939.72;;;4.47;85.78
9538;BME280;4807;48.024;11.726;2024-02-16T06:41:38;94943.53;;;4.53;85.13
9538;BME280;4807;48.024;11.726;2024-02-16T06:44:47;94942.22;;;4.65;85.16
9538;BME280;4807;48.024;11.726;2024-02-16T06:47:55;94957.72;;;4.68;84.96
9538;BME280;4807;48.024;11.726;2024-02-16T06:51:04;94966.94;;;4.80;84.66
9538;BME280;4807;48.024;11.726;2024-02-16T06:54:18;94974.53;;;4.91;84.49
9538;BME280;4807;48.024;11.726;2024-02-16T06:57:27;94973.53;;;5.01;84.77
9538;BME280;4807;48.024;11.726;2024-02-16T07:00:36;94976.84;;;5.11;84.54
9538;BME280;4807;48.024;11.726;2024-02-16T07:03:45;94982.91;;;5.19;83.90
9538;BME280;4807;48.024;11.726;2024-02-16T07:06:54;94984.56;;;5.20;83.30
9538;BME280;4807;48.024;11.726;2024-02-16T07:10:04;94993.63;;;5.26;83.49
9538;BME280;4807;48.024;11.726;2024-02-16T07:13:13;94992.28;;;5.30;83.37
9538;BME280;4807;48.024;11.726;2024-02-16T07:16:21;94996.75;;;5.37;83.96
9538;BME280;4807;48.024;11.726;2024-02-16T07:19:30;95007.94;;;5.48;83.64
9538;BME280;4807;48.024;11.726;2024-02-16T07:22:38;95006.94;;;5.57;83.07
9538;BME280;4807;48.024;11.726;2024-02-16T07:25:48;95010.03;;;5.68;83.34
9538;BME280;4807;48.024;11.726;2024-02-16T07:28:57;95010.34;;;5.90;82.06
9538;BME280;4807;48.024;11.726;2024-02-16T07:32:06;95004.63;;;6.09;81.13
9538;BME280;4807;48.024;11.726;2024-02-16T07:35:15;94997.28;;;6.27;81.47
9538;BME280;4807;48.024;11.726;2024-02-16T07:38:26;94997.47;;;6.57;80.15
9538;BME280;4807;48.024;11.726;2024-02-16T07:41:37;95002.22;;;6.84;79.67
9538;BME280;4807;48.024;11.726;2024-02-16T07:44:45;95007.22;;;7.39;79.34
9538;BME280;4807;48.024;11.726;2024-02-16T07:47:53;95007.53;;;7.74;77.96
9538;BME280;4807;48.024;11.726;2024-02-16T07:51:02;95007.00;;;8.08;76.57
9538;BME280;4807;48.024;11.726;2024-02-16T07:54:11;95005.16;;;8.37;75.84
9538;BME280;4807;48.024;11.726;2024-02-16T07:57:20;95006.41;;;8.56;75.05
9538;BME280;4807;48.024;11.726;2024-02-16T08:00:28;95004.78;;;8.76;75.07
9538;BME280;4807;48.024;11.726;2024-02-16T08:03:37;95012.25;;;8.88;75.47
9538;BME280;4807;48.024;11.726;2024-02-16T08:06:45;95011.75;;;8.99;74.89
9538;BME280;4807;48.024;11.726;2024-02-16T08:09:54;95013.28;;;9.08;74.36
9538;BME280;4807;48.024;11.726;2024-02-16T08:13:03;95015.28;;;9.27;74.22
9538;BME280;4807;48.024;11.726;2024-02-16T08:16:12;95021.06;;;9.58;73.97
9538;BME280;4807;48.024;11.726;2024-02-16T08:19:20;95018.81;;;10.18;73.66
9538;BME280;4807;48.024;11.726;2024-02-16T08:22:29;95020.09;;;10.76;69.64
9538;BME280;4807;48.024;11.726;2024-02-16T08:25:37;95013.66;;;11.44;67.74
9538;BME280;4807;48.024;11.726;2024-02-16T08:28:47;95012.22;;;11.95;66.62
9538;BME280;4807;48.024;11.726;2024-02-16T08:31:55;95019.09;;;12.42;65.07
9538;BME280;4807;48.024;11.726;2024-02-16T08:35:05;95023.50;;;12.81;62.72
9538;BME280;4807;48.024;11.726;2024-02-16T08:38:13;95019.88;;;13.00;59.37
9538;BME280;4807;48.024;11.726;2024-02-16T08:41:22;95018.66;;;13.03;56.73
9538;BME280;4807;48.024;11.726;2024-02-16T08:44:33;95020.97;;;13.30;56.06
9538;BME280;4807;48.024;11.726;2024-02-16T08:47:41;95023.06;;;13.28;55.06
9538;BME280;4807;48.024;11.726;2024-02-16T08:50:49;95023.63;;;13.30;54.79
9538;BME280;4807;48.024;11.726;2024-02-16T08:53:58;95024.34;;;13.13;54.75
9538;BME280;4807;48.024;11.726;2024-02-16T08:57:06;95022.53;;;13.07;57.13
9538;BME280;4807;48.024;11.726;2024-02-16T09:00:17;95029.91;;;13.11;55.54
9538;BME280;4807;48.024;11.726;2024-02-16T09:03:25;95023.56;;;13.44;52.88
9538;BME280;4807;48.024;11.726;2024-02-16T09:06:34;95023.09;;;13.53;52.13
9538;BME280;4807;48.024;11.726;2024-02-16T09:09:42;95013.31;;;13.90;52.58
9538;BME280;4807;48.024;11.726;2024-02-16T09:12:51;95013.81;;;14.24;50.85
9538;BME280;4807;48.024;11.726;2024-02-16T09:16:02;95018.44;;;14.35;48.88
9538;BME280;4807;48.024;11.726;2024-02-16T09:19:11;95013.22;;;14.22;47.47
9538;BME280;4807;48.024;11.726;2024-02-16T09:22:19;95022.59;;;14.31;47.96
9538;BME280;4807;48.024;11.726;2024-02-16T09:25:42;95017.03;;;14.69;48.25
9538;BME280;4807;48.024;11.726;2024-02-16T09:28:52;95025.28;;;14.31;48.00
9538;BME280;4807;48.024;11.726;2024-02-16T09:32:03;95027.94;;;14.56;46.82
9538;BME280;4807;48.024;11.726;2024-02-16T09:35:11;95023.22;;;14.69;47.20
9538;BME280;4807;48.024;11.726;2024-02-16T09:38:20;95016.91;;;14.82;46.42
9538;BME280;4807;48.024;11.726;2024-02-16T09:41:30;95029.78;;;14.73;45.52
9538;BME280;4807;48.024;11.726;2024-02-16T09:44:40;95033.31;;;15.04;46.01
9538;BME280;4807;48.024;11.726;2024-02-16T09:47:52;95029.81;;;15.03;45.75
9538;BME280;4807;48.024;11.726;2024-02-16T09:51:10;95032.94;;;15.00;46.09
9538;BME280;4807;48.024;11.726;2024-02-16T09:54:18;95033.00;;;15.12;45.36
9538;BME280;4807;48.024;11.726;2024-02-16T09:57:26;95030.47;;;14.50;47.57
9538;BME280;4807;48.024;11.726;2024-02-16T10:00:35;95038.13;;;14.65;49.15
9538;BME280;4807;48.024;11.726;2024-02-16T10:03:44;95037.09;;;14.48;48.35
9538;BME280;4807;48.024;11.726;2024-02-16T10:06:53;95033.84;;;14.76;48.96
9538;BME280;4807;48.024;11.726;2024-02-16T10:10:01;95034.75;;;15.06;46.45
9538;BME280;4807;48.024;11.726;2024-02-16T10:13:09;95034.09;;;15.22;40.75
9538;BME280;4807;48.024;11.726;2024-02-16T10:16:18;95026.38;;;15.44;40.90
9538;BME280;4807;48.024;11.726;2024-02-16T10:19:28;95019.91;;;15.63;41.02
9538;BME280;4807;48.024;11.726;2024-02-16T10:22:37;95027.97;;;15.63;42.09
9538;BME280;4807;48.024;11.726;2024-02-16T10:25:54;95021.94;;;15.80;42.73
9538;BME280;4807;48.024;11.726;2024-02-16T10:29:04;95028.47;;;15.84;43.09
9538;BME280;4807;48.024;11.726;2024-02-16T10:32:13;95022.31;;;15.95;42.20
9538;BME280;4807;48.024;11.726;2024-02-16T10:35:24;95023.25;;;16.12;41.33
9538;BME280;4807;48.024;11.726;2024-02-16T10:38:33;95023.00;;;16.02;40.79
9538;BME280;4807;48.024;11.726;2024-02-16T10:41:42;95011.66;;;16.23;41.15
9538;BME280;4807;48.024;11.726;2024-02-16T10:44:53;95020.78;;;16.34;42.00
9538;BME280;4807;48.024;11.726;2024-02-16T10:48:03;95016.69;;;16.31;40.29
9538;BME280;4807;48.024;11.726;2024-02-16T10:51:18;95023.00;;;16.49;40.70
9538;BME280;4807;48.024;11.726;2024-02-16T10:54:32;95020.88;;;16.62;39.09
9538;BME280;4807;48.024;11.726;2024-02-16T10:57:42;95015.97;;;16.71;39.48
9538;BME280;4807;48.024;11.726;2024-02-16T11:00:51;95009.38;;;16.90;40.36
9538;BME280;4807;48.024;11.726;2024-02-16T11:04:02;95013.84;;;17.13;37.83
9538;BME280;4807;48.024;11.726;2024-02-16T11:07:16;95016.22;;;17.09;39.93
9538;BME280;4807;48.024;11.726;2024-02-16T11:10:25;95010.16;;;17.31;38.08
9538;BME280;4807;48.024;11.726;2024-02-16T11:13:35;95007.03;;;17.22;38.29
9538;BME280;4807;48.024;11.726;2024-02-16T11:16:46;95010.72;;;17.04;38.91
9538;BME280;4807;48.024;11.726;2024-02-16T11:19:55;95005.84;;;17.01;39.75
9538;BME280;4807;48.024;11.726;2024-02-16T11:23:10;95004.66;;;17.09;39.19
9538;BME280;4807;48.024;11.726;2024-02-16T11:26:18;95015.06;;;17.05;39.71
9538;BME280;4807;48.024;11.726;2024-02-16T11:29:31;95003.78;;;16.80;39.34
9538;BME280;4807;48.024;11.726;2024-02-16T11:32:43;94995.09;;;16.61;40.40
9538;BME280;4807;48.024;11.726;2024-02-16T11:35:56;94996.91;;;16.84;42.39
9538;BME280;4807;48.024;11.726;2024-02-16T11:39:13;94996.78;;;16.79;39.19
9538;BME280;4807;48.024;11.726;2024-02-16T11:42:23;94995.13;;;16.90;40.71
9538;BME280;4807;48.024;11.726;2024-02-16T11:45:34;94998.72;;;16.95;39.86
9538;BME280;4807;48.024;11.726;2024-02-16T11:48:42;95002.09;;;17.02;42.67
9538;BME280;4807;48.024;11.726;2024-02-16T11:51:51;94994.28;;;17.01;41.08
9538;BME280;4807;48.024;11.726;2024-02-16T11:55:01;94996.22;;;17.05;41.51
9538;BME280;4807;48.024;11.726;2024-02-16T11:58:12;94996.47;;;17.04;39.81
9538;BME280;4807;48.024;11.726;2024-02-16T12:01:20;94995.69;;;16.92;41.70
9538;BME280;4807;48.024;11.726;2024-02-16T12:04:30;94993.53;;;17.05;40.95
9538;BME280;4807;48.024;11.726;2024-02-16T12:07:43;94989.56;;;16.68;41.14
9538;BME280;4807;48.024;11.726;2024-02-16T12:10:53;94984.31;;;16.50;42.16
9538;BME280;4807;48.024;11.726;2024-02-16T12:14:03;94985.84;;;16.69;43.99
9538;BME280;4807;48.024;11.726;2024-02-16T12:17:15;94987.19;;;16.83;42.90
9538;BME280;4807;48.024;11.726;2024-02-16T12:20:23;94987.34;;;16.76;42.41
9538;BME280;4807;48.024;11.726;2024-02-16T12:23:33;94995.16;;;16.78;42.79
9538;BME280;4807;48.024;11.726;2024-02-16T12:26:43;94990.66;;;16.95;42.38
9538;BME280;4807;48.024;11.726;2024-02-16T12:29:51;94995.66;;;17.03;45.60
9538;BME280;4807;48.024;11.726;2024-02-16T12:33:00;94992.19;;;17.20;43.53
9538;BME280;4807;48.024;11.726;2024-02-16T12:36:08;94988.81;;;17.12;42.82
9538;BME280;4807;48.024;11.726;2024-02-16T12:39:16;94992.78;;;17.22;42.40
9538;BME280;4807;48.024;11.726;2024-02-16T12:42:26;94996.94;;;17.29;43.66
9538;BME280;4807;48.024;11.726;2024-02-16T12:45:34;95000.31;;;17.08;41.83
9538;BME280;4807;48.024;11.726;2024-02-16T12:48:43;94994.34;;;17.06;43.87
9538;BME280;4807;48.024;11.726;2024-02-16T12:51:56;94998.88;;;17.17;44.55
9538;BME280;4807;48.024;11.726;2024-02-16T12:55:05;94999.13;;;17.15;42.85
9538;BME280;4807;48.024;11.726;2024-02-16T12:58:15;95003.25;;;17.06;43.38
9538;BME280;4807;48.024;11.726;2024-02-16T13:01:23;94993.00;;;17.20;42.81
9538;BME280;4807;48.024;11.726;2024-02-16T13:04:33;95003.69;;;17.15;43.75
9538;BME280;4807;48.024;11.726;2024-02-16T13:07:41;94997.97;;;17.40;42.28
9538;BME280;4807;48.024;11.726;2024-02-16T13:10:50;94992.88;;;17.43;42.78
9538;BME280;4807;48.024;11.726;2024-02-16T13:13:59;94998.38;;;17.48;42.39
9538;BME280;4807;48.024;11.726;2024-02-16T13:17:08;95000.81;;;17.33;45.12
9538;BME280;4807;48.024;11.726;2024-02-16T13:20:16;94999.19;;;17.21;44.00
9538;BME280;4807;48.024;11.726;2024-02-16T13:23:26;94998.69;;;17.07;46.08
9538;BME280;4807;48.024;11.726;2024-02-16T13:26:36;94998.84;;;16.89;47.75
9538;BME280;4807;48.024;11.726;2024-02-16T13:29:45;95002.72;;;16.81;46.90
9538;BME280;4807;48.024;11.726;2024-02-16T13:32:54;94998.41;;;16.80;46.10
9538;BME280;4807;48.024;11.726;2024-02-16T13:36:03;95006.09;;;16.88;45.77
9538;BME280;4807;48.024;11.726;2024-02-16T13:39:13;95009.16;;;16.92;45.83
9538;BME280;4807;48.024;11.726;2024-02-16T13:42:23;95010.19;;;17.02;45.60
9538;BME280;4807;48.024;11.726;2024-02-16T13:45:51;95009.69;;;17.05;45.60
9538;BME280;4807;48.024;11.726;2024-02-16T13:49:03;95016.69;;;17.06;44.35
9538;BME280;4807;48.024;11.726;2024-02-16T13:52:11;95013.47;;;16.93;44.66
9538;BME280;4807;48.024;11.726;2024-02-16T13:55:19;95019.84;;;16.75;45.79
9538;BME280;4807;48.024;11.726;2024-02-16T13:58:28;95020.53;;;16.59;46.33
9538;BME280;4807;48.024;11.726;2024-02-16T14:01:38;95025.31;;;16.57;46.92
9538;BME280;4807;48.024;11.726;2024-02-16T14:04:47;95028.59;;;16.59;47.38
9538;BME280;4807;48.024;11.726;2024-02-16T14:07:57;95017.84;;;16.59;47.79
9538;BME280;4807;48.024;11.726;2024-02-16T14:11:07;95024.97;;;16.65;47.74
9538;BME280;4807;48.024;11.726;2024-02-16T14:14:16;95035.97;;;16.75;48.30
9538;BME280;4807;48.024;11.726;2024-02-16T14:17:42;95042.59;;;16.84;48.00
9538;BME280;4807;48.024;11.726;2024-02-16T14:20:52;95039.34;;;16.82;47.60
9538;BME280;4807;48.024;11.726;2024-02-16T14:24:00;95041.56;;;16.85;47.96
9538;BME280;4807;48.024;11.726;2024-02-16T14:27:08;95044.34;;;16.78;48.21
9538;BME280;4807;48.024;11.726;2024-02-16T14:30:17;95041.78;;;16.84;47.97
9538;BME280;4807;48.024;11.726;2024-02-16T14:33:28;95044.81;;;16.87;48.11
9538;BME280;4807;48.024;11.726;2024-02-16T14:36:41;95047.50;;;16.87;47.68
9538;BME280;4807;48.024;11.726;2024-02-16T14:39:49;95047.03;;;16.90;48.32
9538;BME280;4807;48.024;11.726;2024-02-16T14:43:04;95049.03;;;16.83;48.73
9538;BME280;4807;48.024;11.726;2024-02-16T14:46:12;95047.88;;;16.79;48.94
9538;BME280;4807;48.024;11.726;2024-02-16T14:49:24;95050.34;;;16.69;48.49
9538;BME280;4807;48.024;11.726;2024-02-16T14:52:34;95054.28;;;16.55;48.61
9538;BME280;4807;48.024;11.726;2024-02-16T14:55:42;95051.50;;;16.50;48.49
9538;BME280;4807;48.024;11.726;2024-02-16T14:58:50;95048.72;;;16.45;48.58
9538;BME280;4807;48.024;11.726;2024-02-16T15:01:59;95057.00;;;16.43;48.83
9538;BME280;4807;48.024;11.726;2024-02-16T15:05:10;95056.75;;;16.56;48.41
9538;BME280;4807;48.024;11.726;2024-02-16T15:08:19;95052.56;;;16.60;48.84
9538;BME280;4807;48.024;11.726;2024-02-16T15:11:28;95069.59;;;16.54;48.18
9538;BME280;4807;48.024;11.726;2024-02-16T15:14:36;95060.28;;;16.45;48.42
9538;BME280;4807;48.024;11.726;2024-02-16T15:17:44;95071.84;;;16.34;49.19
9538;BME280;4807;48.024;11.726;2024-02-16T15:20:54;95065.28;;;16.18;49.60
9538;BME280;4807;48.024;11.726;2024-02-16T15:24:02;95071.22;;;15.97;50.50
9538;BME280;4807;48.024;11.726;2024-02-16T15:27:11;95077.13;;;15.76;51.64
9538;BME280;4807;48.024;11.726;2024-02-16T15:30:20;95080.22;;;15.61;51.97
9538;BME280;4807;48.024;11.726;2024-02-16T15:33:29;95083.75;;;15.43;52.80
9538;BME280;4807;48.024;11.726;2024-02-16T15:36:38;95083.25;;;15.35;52.88
9538;BME280;4807;48.024;11.726;2024-02-16T15:39:48;95088.94;;;15.26;53.17
9538;BME280;4807;48.024;11.726;2024-02-16T15:43:00;95096.53;;;15.11;54.04
9538;BME280;4807;48.024;11.726;2024-02-16T15:46:09;95093.34;;;15.03;54.73
9538;BME280;4807;48.024;11.726;2024-02-16T15:49:18;95099.41;;;14.80;55.68
9538;BME280;4807;48.024;11.726;2024-02-16T15:52:27;95108.56;;;14.72;55.86
9538;BME280;4807;48.024;11.726;2024-02-16T15:55:36;95114.22;;;14.39;57.03
9538;BME280;4807;48.024;11.726;2024-02-16T15:58:44;95112.75;;;14.43;56.82
9538;BME280;4807;48.024;11.726;2024-02-16T16:01:52;95121.16;;;14.22;57.40
9538;BME280;4807;48.024;11.726;2024-02-16T16:05:03;95132.47;;;14.24;57.16
9538;BME280;4807;48.024;11.726;2024-02-16T16:08:17;95129.94;;;14.04;58.13
9538;BME280;4807;48.024;11.726;2024-02-16T16:11:27;95129.72;;;14.06;58.07
9538;BME280;4807;48.024;11.726;2024-02-16T16:14:36;95135.25;;;13.86;58.27
9538;BME280;4807;48.024;11.726;2024-02-16T16:17:44;95133.25;;;13.75;58.28
9538;BME280;4807;48.024;11.726;2024-02-16T16:20:53;95133.66;;;13.72;58.97
9538;BME280;4807;48.024;11.726;2024-02-16T16:24:03;95135.91;;;13.44;59.04
9538;BME280;4807;48.024;11.726;2024-02-16T16:27:13;95133.94;;;13.26;60.01
9538;BME280;4807;48.024;11.726;2024-02-16T16:30:21;95136.06;;;13.04;60.45
9538;BME280;4807;48.024;11.726;2024-02-16T16:33:30;95139.19;;;12.88;60.62
9538;BME280;4807;48.024;11.726;2024-02-16T16:36:38;95143.91;;;12.86;61.34
9538;BME280;4807;48.024;11.726;2024-02-16T16:39:48;95141.69;;;12.70;61.51
9538;BME280;4807;48.024;11.726;2024-02-16T16:42:57;95145.84;;;12.52;62.34
9538;BME280;4807;48.024;11.726;2024-02-16T16:46:11;95146.88;;;12.38;62.53
9538;BME280;4807;48.024;11.726;2024-02-16T16:49:20;95155.50;;;12.34;63.54
9538;BME280;4807;48.024;11.726;2024-02-16T16:52:29;95171.53;;;12.47;62.68
9538;BME280;4807;48.024;11.726;2024-02-16T16:55:39;95173.38;;;12.40;62.75
9538;BME280;4807;48.024;11.726;2024-02-16T16:58:47;95175.44;;;12.31;63.49
9538;BME280;4807;48.024;11.726;2024-02-16T17:01:55;95178.53;;;12.15;64.20
9538;BME280;4807;48.024;11.726;2024-02-16T17:05:04;95187.75;;;12.06;64.11
9538;BME280;4807;48.024;11.726;2024-02-16T17:08:14;95196.97;;;11.83;64.90